Terminal Aerodrome Forecast
Issued by NWS

Home | Current Version | Previous Version | Text Only | Print | Product List | Glossary On
Versions: 1 2 3 4 5 6 7 8 9 10 11 12 13 14 15 16 17 18 19 20 21 22 23 24 25 26 27 28 29 30 31 32 33 34 35 36 37 38 39 40 41 42 43 44 45 46 47 48 49 50
000
FTUS41 KRNK 051732
TAFBCB
TAF
KBCB 051732Z 0518/0618 30004KT 4SM -SN BR OVC005
      TEMPO 0518/0520 1/2SM SN FG OVC002
     FM052100 32007KT 6SM -SN BR SCT006 OVC012
     FM060100 32006KT P6SM BKN014
     FM061000 31003KT 3SM BR BKN011
     FM061400 00000KT P6SM SCT012=

USA.gov is the U.S. government's official web portal to all federal, state and local government web resources and services.